createdAt,value
2017-10-28T00:02:02.282Z,99656.50
2017-10-28T00:04:36.877Z,99684.45
2017-10-28T00:07:11.271Z,99668.53
2017-10-28T00:09:46.455Z,99673.62
2017-10-28T00:12:21.024Z,99661.94
2017-10-28T00:14:55.487Z,99657.66
2017-10-28T00:17:29.976Z,99655.52
2017-10-28T00:22:45.395Z,99643.13
2017-10-28T00:25:21.783Z,99647.98
2017-10-28T00:27:56.814Z,99648.52
2017-10-28T00:30:36.499Z,99636.62
2017-10-28T00:33:16.499Z,99644.50
2017-10-28T00:35:56.438Z,99644.13
2017-10-28T00:38:31.220Z,99637.28
2017-10-28T00:41:05.623Z,99617.33
2017-10-28T00:43:40.256Z,99630.22
2017-10-28T00:46:14.767Z,99642.30
2017-10-28T00:48:49.358Z,99631.73
2017-10-28T00:51:23.806Z,99621.98
2017-10-28T00:53:59.155Z,99629.80
2017-10-28T00:56:33.706Z,99612.35
2017-10-28T00:59:08.099Z,99620.16
2017-10-28T01:01:42.518Z,99617.08
2017-10-28T01:04:17.074Z,99626.18
2017-10-28T01:06:51.547Z,99625.89
2017-10-28T01:09:26.191Z,99625.08
2017-10-28T01:12:00.604Z,99634.18
2017-10-28T01:14:35.251Z,99632.02
2017-10-28T01:17:10.362Z,99626.65
2017-10-28T01:19:44.907Z,99623.97
2017-10-28T01:22:19.390Z,99623.41
2017-10-28T01:24:54.783Z,99627.31
2017-10-28T01:27:29.311Z,99625.44
2017-10-28T01:32:44.306Z,99615.27
2017-10-28T01:35:18.763Z,99606.53
2017-10-28T01:37:53.274Z,99616.58
2017-10-28T01:40:27.794Z,99619.82
2017-10-28T01:43:02.424Z,99616.16
2017-10-28T01:45:36.946Z,99592.93
2017-10-28T01:48:11.543Z,99604.66
2017-10-28T01:50:45.934Z,99607.17
2017-10-28T01:53:20.457Z,99609.49
2017-10-28T01:55:54.834Z,99591.77
2017-10-28T01:58:29.351Z,99584.77
2017-10-28T02:01:03.791Z,99560.25
2017-10-28T02:03:38.443Z,99574.20
2017-10-28T02:06:12.848Z,99538.29
2017-10-28T02:08:47.401Z,99568.38
2017-10-28T02:11:21.812Z,99566.63
2017-10-28T02:13:56.365Z,99563.37
2017-10-28T02:16:30.434Z,99558.88
2017-10-28T02:19:05.059Z,99547.73
2017-10-28T02:21:39.472Z,99560.16
2017-10-28T02:24:14.047Z,99557.07
2017-10-28T02:26:48.465Z,99551.28
2017-10-28T02:29:22.971Z,99557.17
2017-10-28T02:31:57.490Z,99553.97
2017-10-28T02:34:32.030Z,99555.70
2017-10-28T02:37:06.224Z,99551.58
2017-10-28T02:39:40.647Z,99541.80
2017-10-28T02:42:15.042Z,99544.77
2017-10-28T02:44:49.636Z,99546.41
2017-10-28T02:47:24.160Z,99536.48
2017-10-28T02:49:58.543Z,99537.43
2017-10-28T02:52:32.762Z,99538.23
2017-10-28T02:55:14.758Z,99551.00
2017-10-28T02:57:49.730Z,99551.81
2017-10-28T03:00:24.976Z,99547.80
2017-10-28T03:03:00.160Z,99553.09
2017-10-28T03:05:36.670Z,99561.80
2017-10-28T03:08:11.170Z,99562.73
2017-10-28T03:10:45.605Z,99562.61
2017-10-28T03:13:19.971Z,99562.90
2017-10-28T03:15:54.462Z,99562.77
2017-10-28T03:18:29.389Z,99554.72
2017-10-28T03:21:04.012Z,99540.74
2017-10-28T03:23:38.630Z,99551.75
2017-10-28T03:26:13.105Z,99543.17
2017-10-28T03:28:47.573Z,99549.32
2017-10-28T03:31:21.984Z,99532.52
2017-10-28T03:33:56.699Z,99541.96
2017-10-28T03:36:31.341Z,99535.77
2017-10-28T03:39:06.218Z,99542.33
2017-10-28T03:41:40.842Z,99542.86
2017-10-28T03:44:15.919Z,99540.86
2017-10-28T03:46:50.487Z,99538.98
2017-10-28T03:49:24.971Z,99538.34
2017-10-28T03:51:59.405Z,99535.13
2017-10-28T03:54:34.075Z,99521.67
2017-10-28T03:57:07.951Z,99512.28
2017-10-28T03:59:42.477Z,99519.92
2017-10-28T04:02:17.047Z,99517.52
2017-10-28T04:04:51.430Z,99513.37
2017-10-28T04:07:25.816Z,99503.33
2017-10-28T04:10:00.291Z,99505.98
2017-10-28T04:12:34.830Z,99493.53
2017-10-28T04:15:14.697Z,99486.98
2017-10-28T04:17:49.060Z,99468.42
2017-10-28T04:20:23.760Z,99488.73
2017-10-28T04:22:58.244Z,99498.78
2017-10-28T04:25:33.571Z,99498.66
2017-10-28T04:28:08.143Z,99498.37
2017-10-28T04:30:42.532Z,99499.34
2017-10-28T04:33:16.954Z,99470.82
2017-10-28T04:35:51.338Z,99491.54
2017-10-28T04:38:25.951Z,99480.65
2017-10-28T04:41:00.957Z,99479.03
2017-10-28T04:43:35.518Z,99472.07
2017-10-28T04:46:09.993Z,99462.80
2017-10-28T04:48:46.427Z,99452.60
2017-10-28T04:51:20.884Z,99450.05
2017-10-28T04:53:55.388Z,99454.34
2017-10-28T04:56:30.242Z,99464.92
2017-10-28T04:59:04.813Z,99461.18
2017-10-28T05:01:39.314Z,99449.39
2017-10-28T05:04:13.790Z,99455.13
2017-10-28T05:06:48.267Z,99457.28
2017-10-28T05:09:22.978Z,99433.02
2017-10-28T05:11:57.389Z,99440.22
2017-10-28T05:14:31.976Z,99435.83
2017-10-28T05:17:06.484Z,99426.68
2017-10-28T05:19:40.983Z,99427.74
2017-10-28T05:22:15.435Z,99424.28
2017-10-28T05:24:50.027Z,99419.57
2017-10-28T05:27:24.435Z,99421.47
2017-10-28T05:29:59.063Z,99424.96
2017-10-28T05:32:33.499Z,99432.08
2017-10-28T05:35:14.657Z,99419.59
2017-10-28T05:37:49.058Z,99426.33
2017-10-28T05:40:23.519Z,99426.84
2017-10-28T05:42:58.058Z,99420.56
2017-10-28T05:45:32.188Z,99432.09
2017-10-28T05:48:06.286Z,99436.13
2017-10-28T05:50:40.777Z,99427.25
2017-10-28T05:53:15.469Z,99429.27
2017-10-28T05:55:50.315Z,99436.80
2017-10-28T05:58:24.927Z,99428.87
2017-10-28T06:00:59.151Z,99439.63
2017-10-28T06:03:33.737Z,99439.63
2017-10-28T06:06:08.238Z,99437.47
2017-10-28T06:08:42.739Z,99442.71
2017-10-28T06:11:17.422Z,99444.99
2017-10-28T06:13:52.059Z,99442.44
2017-10-28T06:16:26.607Z,99435.88
2017-10-28T06:19:01.865Z,99442.70
2017-10-28T06:21:36.538Z,99448.07
2017-10-28T06:24:11.367Z,99444.88
2017-10-28T06:26:45.812Z,99445.16
2017-10-28T06:29:20.580Z,99441.00
2017-10-28T06:31:55.011Z,99443.16
2017-10-28T06:34:29.519Z,99432.53
2017-10-28T06:37:03.959Z,99435.34
2017-10-28T06:39:38.556Z,99441.80
2017-10-28T06:42:13.147Z,99432.41
2017-10-28T06:44:47.729Z,99431.31
2017-10-28T06:47:22.108Z,99441.39
2017-10-28T06:49:56.592Z,99439.64
2017-10-28T06:52:31.024Z,99438.45
2017-10-28T06:55:08.565Z,99417.77
2017-10-28T06:57:43.126Z,99443.83
2017-10-28T07:00:17.572Z,99444.77
2017-10-28T07:02:52.191Z,99436.84
2017-10-28T07:05:27.021Z,99447.30
2017-10-28T07:08:01.077Z,99442.63
2017-10-28T07:10:35.668Z,99442.72
2017-10-28T07:13:10.291Z,99439.91
2017-10-28T07:15:44.809Z,99429.30
2017-10-28T07:18:19.500Z,99385.79
2017-10-28T07:20:53.996Z,99435.47
2017-10-28T07:23:28.638Z,99436.69
2017-10-28T07:26:03.179Z,99429.70
2017-10-28T07:28:37.600Z,99427.95
2017-10-28T07:31:12.115Z,99423.78
2017-10-28T07:33:46.645Z,99426.08
2017-10-28T07:36:21.075Z,99419.62
2017-10-28T07:38:55.683Z,99421.87
2017-10-28T07:41:30.082Z,99412.34
2017-10-28T07:44:04.555Z,99418.78
2017-10-28T07:46:38.956Z,99417.42
2017-10-28T07:49:13.376Z,99424.14
2017-10-28T07:51:48.828Z,99414.60
2017-10-28T07:54:23.518Z,99416.89
2017-10-28T07:56:57.930Z,99414.84
2017-10-28T07:59:32.567Z,99368.31
2017-10-28T08:02:07.067Z,99422.66
2017-10-28T08:04:41.585Z,99410.41
2017-10-28T08:07:16.120Z,99410.56
2017-10-28T08:09:50.734Z,99412.45
2017-10-28T08:12:25.354Z,99417.03
2017-10-28T08:14:59.894Z,99400.50
2017-10-28T08:17:34.343Z,99403.16
2017-10-28T08:20:09.168Z,99382.80
2017-10-28T08:22:43.806Z,99400.75
2017-10-28T08:25:18.303Z,99386.68
2017-10-28T08:27:52.775Z,99384.68
2017-10-28T08:30:27.211Z,99392.34
2017-10-28T08:33:01.882Z,99391.90
2017-10-28T08:35:37.383Z,99372.58
2017-10-28T08:38:13.976Z,99384.70
2017-10-28T08:40:48.706Z,99384.23
2017-10-28T08:43:23.343Z,99395.55
2017-10-28T08:45:57.754Z,99387.52
2017-10-28T08:48:32.187Z,99381.48
2017-10-28T08:51:07.050Z,99378.28
2017-10-28T08:53:41.724Z,99366.33
2017-10-28T08:56:21.590Z,99382.19
2017-10-28T08:59:01.162Z,99376.70
2017-10-28T09:01:38.399Z,99364.47
2017-10-28T09:04:12.771Z,99373.74
2017-10-28T09:06:47.158Z,99373.06
2017-10-28T09:09:21.694Z,99372.17
2017-10-28T09:11:56.159Z,99366.65
2017-10-28T09:14:30.722Z,99356.05
2017-10-28T09:17:05.314Z,99364.41
2017-10-28T09:19:39.930Z,99348.97
2017-10-28T09:22:13.761Z,99363.79
2017-10-28T09:24:48.277Z,99359.98
2017-10-28T09:27:23.299Z,99344.04
2017-10-28T09:29:57.763Z,99343.84
2017-10-28T09:32:32.258Z,99352.03
2017-10-28T09:35:14.446Z,99347.13
2017-10-28T09:37:48.920Z,99341.11
2017-10-28T09:40:23.376Z,99327.14
2017-10-28T09:42:57.794Z,99331.65
2017-10-28T09:45:32.309Z,99325.37
2017-10-28T09:48:06.824Z,99311.64
2017-10-28T09:50:41.768Z,99225.27
2017-10-28T09:53:16.259Z,99296.73
2017-10-28T09:55:50.727Z,99297.94
2017-10-28T09:58:25.114Z,99298.31
2017-10-28T10:00:59.655Z,99301.63
2017-10-28T10:03:34.304Z,99290.82
2017-10-28T10:06:13.018Z,99294.96
2017-10-28T10:08:48.033Z,99289.06
2017-10-28T10:11:23.549Z,99287.77
2017-10-28T10:13:58.104Z,99293.61
2017-10-28T10:16:32.784Z,99284.98
2017-10-28T10:19:07.414Z,99269.72
2017-10-28T10:21:41.926Z,99278.81
2017-10-28T10:24:16.450Z,99278.44
2017-10-28T10:26:50.920Z,99270.12
2017-10-28T10:29:25.310Z,99248.47
2017-10-28T10:31:59.708Z,99266.21
2017-10-28T10:34:34.164Z,99258.35
2017-10-28T10:37:08.551Z,99241.06
2017-10-28T10:39:43.171Z,99249.69
2017-10-28T10:42:17.652Z,99231.59
2017-10-28T10:44:52.135Z,99237.86
2017-10-28T10:47:27.538Z,99199.45
2017-10-28T10:50:02.153Z,99252.73
2017-10-28T10:52:36.674Z,99239.53
2017-10-28T10:55:14.759Z,99210.44
2017-10-28T10:57:49.306Z,99225.36
2017-10-28T11:00:23.806Z,99202.84
2017-10-28T11:02:58.327Z,99213.91
2017-10-28T11:05:32.883Z,99206.79
2017-10-28T11:08:08.010Z,99207.80
2017-10-28T11:10:42.470Z,99205.65
2017-10-28T11:13:16.999Z,99197.25
2017-10-28T11:15:51.382Z,99205.40
2017-10-28T11:18:25.904Z,99193.20
2017-10-28T11:21:00.537Z,99188.52
2017-10-28T11:23:35.078Z,99172.73
2017-10-28T11:26:09.486Z,99168.92
2017-10-28T11:28:43.920Z,99177.37
2017-10-28T11:31:18.339Z,99178.31
2017-10-28T11:33:52.811Z,99181.27
2017-10-28T11:36:27.366Z,99151.55
2017-10-28T11:39:01.974Z,99174.84
2017-10-28T11:41:36.391Z,99177.87
2017-10-28T11:44:10.905Z,99181.92
2017-10-28T11:46:45.288Z,99169.50
2017-10-28T11:49:19.908Z,99157.48
2017-10-28T11:51:54.331Z,99148.95
2017-10-28T11:54:28.769Z,99133.88
2017-10-28T11:57:03.326Z,99148.23
2017-10-28T11:59:37.914Z,99110.59
2017-10-28T12:02:12.382Z,99087.84
2017-10-28T12:04:46.878Z,99102.02
2017-10-28T12:07:21.310Z,99087.53
2017-10-28T12:09:55.874Z,99092.07
2017-10-28T12:12:30.314Z,99076.62
2017-10-28T12:17:48.359Z,99073.55
2017-10-28T12:20:22.999Z,99071.03
2017-10-28T12:22:57.626Z,99082.38
2017-10-28T12:25:32.171Z,99067.11
2017-10-28T12:28:06.804Z,99071.00
2017-10-28T12:30:41.324Z,99057.31
2017-10-28T12:33:15.805Z,99011.46
2017-10-28T12:35:50.264Z,99057.62
2017-10-28T12:38:24.814Z,99058.06
2017-10-28T12:40:59.215Z,99068.52
2017-10-28T12:43:33.620Z,99050.02
2017-10-28T12:46:08.114Z,99073.90
2017-10-28T12:48:42.671Z,99049.32
2017-10-28T12:51:17.631Z,99072.32
2017-10-28T12:53:52.181Z,99066.80
2017-10-28T12:56:26.580Z,99073.56
2017-10-28T12:59:01.181Z,99057.12
2017-10-28T13:01:35.966Z,99070.20
2017-10-28T13:04:10.531Z,99061.42
2017-10-28T13:06:44.998Z,99051.30
2017-10-28T13:09:19.590Z,99061.16
2017-10-28T13:11:54.066Z,99058.76
2017-10-28T13:14:28.657Z,99066.46
2017-10-28T13:17:03.104Z,99066.84
2017-10-28T13:19:37.678Z,99067.64
2017-10-28T13:22:12.155Z,99053.80
2017-10-28T13:24:46.724Z,99082.84
2017-10-28T13:27:22.322Z,99075.20
2017-10-28T13:29:56.933Z,99068.62
2017-10-28T13:32:31.302Z,99070.27
2017-10-28T13:35:15.079Z,98957.52
2017-10-28T13:37:49.519Z,99052.45
2017-10-28T13:40:23.916Z,99052.52
2017-10-28T13:42:58.544Z,99035.88
2017-10-28T13:45:32.923Z,99051.10
2017-10-28T13:48:07.520Z,99030.39
2017-10-28T13:50:42.054Z,99029.02
2017-10-28T13:53:16.635Z,99021.59
2017-10-28T13:55:51.107Z,99042.80
2017-10-28T13:58:26.335Z,99015.30
2017-10-28T14:01:00.895Z,99021.28
2017-10-28T14:03:36.077Z,99012.17
2017-10-28T14:06:11.491Z,99011.91
2017-10-28T14:08:51.243Z,99006.97
2017-10-28T14:11:25.830Z,98997.82
2017-10-28T14:14:00.374Z,98995.44
2017-10-28T14:16:34.903Z,98993.22
2017-10-28T14:19:09.569Z,98982.53
2017-10-28T14:21:44.211Z,98987.03
2017-10-28T14:24:18.726Z,98978.60
2017-10-28T14:26:53.193Z,98963.61
2017-10-28T14:29:27.791Z,98968.32
2017-10-28T14:32:02.224Z,98975.72
2017-10-28T14:34:36.816Z,98959.11
2017-10-28T14:37:11.242Z,98960.59
2017-10-28T14:39:45.758Z,98964.36
2017-10-28T14:42:20.263Z,98924.34
2017-10-28T14:44:54.652Z,98952.46
2017-10-28T14:47:29.158Z,98945.73
2017-10-28T14:52:44.200Z,98938.08
2017-10-28T14:55:18.742Z,98931.50
2017-10-28T14:57:53.346Z,98947.12
2017-10-28T15:00:27.750Z,98940.67
2017-10-28T15:03:02.804Z,98955.55
2017-10-28T15:05:37.442Z,98884.34
2017-10-28T15:08:12.062Z,98949.67
2017-10-28T15:10:46.478Z,98917.49
2017-10-28T15:13:20.972Z,98936.44
2017-10-28T15:15:55.383Z,98938.45
2017-10-28T15:18:29.836Z,98942.48
2017-10-28T15:21:04.383Z,98938.72
2017-10-28T15:23:38.818Z,98933.34
2017-10-28T15:26:13.971Z,98909.66
2017-10-28T15:28:48.479Z,98938.69
2017-10-28T15:31:23.334Z,98930.76
2017-10-28T15:33:57.720Z,98948.47
2017-10-28T15:36:32.321Z,98926.93
2017-10-28T15:39:06.722Z,98920.74
2017-10-28T15:41:41.169Z,98877.32
2017-10-28T15:44:15.718Z,98924.94
2017-10-28T15:46:50.215Z,98920.09
2017-10-28T15:49:24.746Z,98915.12
2017-10-28T15:51:59.240Z,98901.58
2017-10-28T15:54:33.732Z,98901.58
2017-10-28T15:57:08.187Z,98916.84
2017-10-28T15:59:42.607Z,98900.82
2017-10-28T16:02:17.387Z,98909.61
2017-10-28T16:04:51.837Z,98912.80
2017-10-28T16:07:26.247Z,98898.09
2017-10-28T16:10:00.827Z,98915.62
2017-10-28T16:12:35.285Z,98876.34
2017-10-28T16:15:09.659Z,98896.94
2017-10-28T16:17:43.926Z,98888.75
2017-10-28T16:20:18.306Z,98892.43
2017-10-28T16:22:52.820Z,98869.58
2017-10-28T16:25:27.286Z,98898.75
2017-10-28T16:28:01.940Z,98895.79
2017-10-28T16:30:36.398Z,98889.97
2017-10-28T16:33:11.246Z,98881.00
2017-10-28T16:35:45.920Z,98860.13
2017-10-28T16:38:20.426Z,98896.95
2017-10-28T16:40:55.075Z,98895.08
2017-10-28T16:43:29.632Z,98903.78
2017-10-28T16:46:04.972Z,98862.23
2017-10-28T16:48:39.554Z,98887.01
2017-10-28T16:51:13.935Z,98853.50
2017-10-28T16:53:48.523Z,98882.44
2017-10-28T16:56:23.008Z,98860.44
2017-10-28T16:58:57.307Z,98863.21
2017-10-28T17:01:32.096Z,98846.27
2017-10-28T17:04:06.824Z,98846.23
2017-10-28T17:06:41.636Z,98842.82
2017-10-28T17:09:16.255Z,98844.27
2017-10-28T17:11:50.691Z,98834.05
2017-10-28T17:14:25.373Z,98836.64
2017-10-28T17:16:59.623Z,98845.74
2017-10-28T17:19:35.003Z,98826.34
2017-10-28T17:22:09.659Z,98835.43
2017-10-28T17:24:44.150Z,98838.25
2017-10-28T17:27:18.570Z,98828.03
2017-10-28T17:29:53.195Z,98837.67
2017-10-28T17:32:27.788Z,98830.59
2017-10-28T17:35:02.299Z,98804.91
2017-10-28T17:37:36.774Z,98809.97
2017-10-28T17:40:15.754Z,98781.39
2017-10-28T17:42:50.084Z,98807.52
2017-10-28T17:45:24.610Z,98796.09
2017-10-28T17:47:59.131Z,98800.88
2017-10-28T17:50:33.551Z,98785.02
2017-10-28T17:53:07.794Z,98811.28
2017-10-28T17:55:42.322Z,98814.77
2017-10-28T17:58:17.872Z,98812.72
2017-10-28T18:00:52.345Z,98811.72
2017-10-28T18:03:28.103Z,98801.83
2017-10-28T18:06:02.651Z,98790.70
2017-10-28T18:08:37.275Z,98796.75
2017-10-28T18:11:11.532Z,98808.14
2017-10-28T18:13:47.071Z,98780.27
2017-10-28T18:16:21.715Z,98795.64
2017-10-28T18:18:56.134Z,98779.38
2017-10-28T18:21:30.588Z,98751.94
2017-10-28T18:24:05.124Z,98783.89
2017-10-28T18:26:40.583Z,98761.05
2017-10-28T18:29:15.443Z,98732.00
2017-10-28T18:31:50.027Z,98743.97
2017-10-28T18:34:24.544Z,98706.54
2017-10-28T18:36:59.010Z,98729.98
2017-10-28T18:39:33.603Z,98731.55
2017-10-28T18:42:08.173Z,98746.72
2017-10-28T18:44:42.734Z,98734.69
2017-10-28T18:47:17.390Z,98739.52
2017-10-28T18:49:52.023Z,98764.72
2017-10-28T18:52:26.284Z,98757.41
2017-10-28T18:55:00.670Z,98766.58
2017-10-28T18:57:35.160Z,98753.89
2017-10-28T19:00:13.526Z,98753.31
2017-10-28T19:02:47.998Z,98759.64
2017-10-28T19:05:22.392Z,98747.31
2017-10-28T19:07:56.993Z,98706.56
2017-10-28T19:10:31.459Z,98745.08
2017-10-28T19:13:05.915Z,98755.16
2017-10-28T19:15:41.173Z,98733.02
2017-10-28T19:18:15.603Z,98733.13
2017-10-28T19:20:50.064Z,98720.67
2017-10-28T19:23:24.615Z,98721.16
2017-10-28T19:25:59.138Z,98712.56
2017-10-28T19:28:33.529Z,98721.20
2017-10-28T19:31:07.938Z,98704.58
2017-10-28T19:33:42.563Z,98733.69
2017-10-28T19:36:17.230Z,98736.91
2017-10-28T19:38:51.728Z,98726.56
2017-10-28T19:41:26.823Z,98724.45
2017-10-28T19:44:01.279Z,98726.39
2017-10-28T19:46:35.681Z,98679.64
2017-10-28T19:49:10.159Z,98700.45
2017-10-28T19:51:44.839Z,98688.20
2017-10-28T19:54:19.154Z,98698.02
2017-10-28T19:56:53.570Z,98690.30
2017-10-28T19:59:28.308Z,98710.34
2017-10-28T20:02:02.712Z,98687.48
2017-10-28T20:04:37.345Z,98688.25
2017-10-28T20:07:11.762Z,98695.23
2017-10-28T20:09:46.398Z,98694.12
2017-10-28T20:12:20.847Z,98684.70
2017-10-28T20:14:55.385Z,98652.02
2017-10-28T20:17:30.131Z,98656.98
2017-10-28T20:22:46.402Z,98678.64
2017-10-28T20:25:21.022Z,98663.09
2017-10-28T20:27:55.646Z,98678.45
2017-10-28T20:30:30.055Z,98683.77
2017-10-28T20:33:04.731Z,98682.42
2017-10-28T20:35:39.172Z,98675.15
2017-10-28T20:38:13.704Z,98671.05
2017-10-28T20:40:48.004Z,98661.34
2017-10-28T20:43:22.614Z,98664.33
2017-10-28T20:45:58.034Z,98686.59
2017-10-28T20:48:33.768Z,98686.39
2017-10-28T20:51:08.491Z,98668.13
2017-10-28T20:53:43.013Z,98653.63
2017-10-28T20:56:17.780Z,98652.19
2017-10-28T20:58:52.203Z,98648.58
2017-10-28T21:01:26.591Z,98675.53
2017-10-28T21:04:01.189Z,98692.67
2017-10-28T21:06:36.031Z,98646.78
2017-10-28T21:09:12.230Z,98677.62
2017-10-28T21:11:46.618Z,98670.00
2017-10-28T21:14:21.245Z,98669.97
2017-10-28T21:16:55.727Z,98663.20
2017-10-28T21:19:30.350Z,98663.70
2017-10-28T21:22:04.765Z,98654.78
2017-10-28T21:24:39.522Z,98622.37
2017-10-28T21:27:14.155Z,98641.58
2017-10-28T21:29:48.639Z,98630.00
2017-10-28T21:32:23.120Z,98630.48
2017-10-28T21:34:57.689Z,98626.64
2017-10-28T21:37:32.241Z,98631.48
2017-10-28T21:40:11.513Z,98604.80
2017-10-28T21:42:46.673Z,98643.86
2017-10-28T21:45:22.238Z,98610.48
2017-10-28T21:47:57.842Z,98627.95
2017-10-28T21:50:32.266Z,98584.72
2017-10-28T21:53:06.860Z,98610.66
2017-10-28T21:55:41.760Z,98611.17
2017-10-28T21:58:16.175Z,98594.58
2017-10-28T22:00:50.692Z,98598.25
2017-10-28T22:03:25.152Z,98579.70
2017-10-28T22:05:59.732Z,98580.91
2017-10-28T22:08:34.362Z,98570.84
2017-10-28T22:11:08.891Z,98575.41
2017-10-28T22:13:43.475Z,98558.11
2017-10-28T22:16:19.087Z,98520.36
2017-10-28T22:18:53.713Z,98508.21
2017-10-28T22:21:28.217Z,98539.92
2017-10-28T22:24:02.740Z,98457.61
2017-10-28T22:26:37.234Z,98504.53
2017-10-28T22:29:11.766Z,98515.41
2017-10-28T22:31:48.278Z,98495.13
2017-10-28T22:34:23.626Z,98472.90
2017-10-28T22:36:58.267Z,98480.71
2017-10-28T22:39:32.754Z,98464.06
2017-10-28T22:42:07.203Z,98455.86
2017-10-28T22:44:41.722Z,98448.79
2017-10-28T22:47:16.167Z,98441.00
2017-10-28T22:49:50.687Z,98436.63
2017-10-28T22:52:25.078Z,98445.84
2017-10-28T22:54:59.686Z,98424.93
2017-10-28T22:57:33.762Z,98411.20
2017-10-28T23:00:15.091Z,98301.22
2017-10-28T23:02:49.551Z,98415.84
2017-10-28T23:05:24.033Z,98424.77
2017-10-28T23:07:58.657Z,98426.45
2017-10-28T23:10:33.100Z,98417.98
2017-10-28T23:13:07.539Z,98416.84
2017-10-28T23:15:42.105Z,98402.00
2017-10-28T23:18:16.646Z,98389.20
2017-10-28T23:20:51.110Z,98426.45
2017-10-28T23:23:25.659Z,98390.22
2017-10-28T23:26:00.196Z,98405.82
2017-10-28T23:28:34.636Z,98399.33
2017-10-28T23:31:09.067Z,98384.91
2017-10-28T23:33:43.699Z,98384.03
2017-10-28T23:36:18.102Z,98380.95
2017-10-28T23:38:52.586Z,98374.14
2017-10-28T23:41:26.991Z,98366.89
2017-10-28T23:44:01.510Z,98356.75
2017-10-28T23:46:35.965Z,98336.27
2017-10-28T23:49:10.459Z,98343.92
2017-10-28T23:51:44.942Z,98330.57
2017-10-28T23:54:19.566Z,98326.08
2017-10-28T23:56:54.004Z,98319.70
2017-10-28T23:59:28.549Z,98309.17
